sensor_id;sensor_type;location;lat;lon;timestamp;P1;durP1;ratioP1;P2;durP2;ratioP2
16531;SDS011;8378;57.698;11.958;2022-08-19T00:01:49;7.57;;;4.97;;
16531;SDS011;8378;57.698;11.958;2022-08-19T00:04:17;6.53;;;4.95;;
16531;SDS011;8378;57.698;11.958;2022-08-19T00:06:47;9.02;;;4.95;;
16531;SDS011;8378;57.698;11.958;2022-08-19T00:09:14;7.30;;;5.20;;
16531;SDS011;8378;57.698;11.958;2022-08-19T00:11:42;6.07;;;4.55;;
16531;SDS011;8378;57.698;11.958;2022-08-19T00:14:09;5.40;;;4.43;;
16531;SDS011;8378;57.698;11.958;2022-08-19T00:16:37;7.78;;;4.88;;
16531;SDS011;8378;57.698;11.958;2022-08-19T00:19:04;7.22;;;4.40;;
16531;SDS011;8378;57.698;11.958;2022-08-19T00:21:30;6.10;;;4.40;;
16531;SDS011;8378;57.698;11.958;2022-08-19T00:23:56;6.82;;;4.88;;
16531;SDS011;8378;57.698;11.958;2022-08-19T00:26:23;7.55;;;5.13;;
16531;SDS011;8378;57.698;11.958;2022-08-19T00:28:50;7.78;;;4.93;;
16531;SDS011;8378;57.698;11.958;2022-08-19T00:31:15;6.53;;;4.90;;
16531;SDS011;8378;57.698;11.958;2022-08-19T00:33:42;6.05;;;5.03;;
16531;SDS011;8378;57.698;11.958;2022-08-19T00:36:08;8.07;;;4.68;;
16531;SDS011;8378;57.698;11.958;2022-08-19T00:38:35;8.05;;;4.70;;
16531;SDS011;8378;57.698;11.958;2022-08-19T00:41:01;9.95;;;5.00;;
16531;SDS011;8378;57.698;11.958;2022-08-19T00:43:27;5.38;;;4.88;;
16531;SDS011;8378;57.698;11.958;2022-08-19T00:45:54;7.95;;;4.97;;
16531;SDS011;8378;57.698;11.958;2022-08-19T00:48:19;6.88;;;5.28;;
16531;SDS011;8378;57.698;11.958;2022-08-19T00:50:47;7.30;;;4.90;;
16531;SDS011;8378;57.698;11.958;2022-08-19T00:53:15;6.70;;;4.70;;
16531;SDS011;8378;57.698;11.958;2022-08-19T00:55:47;6.28;;;4.60;;
16531;SDS011;8378;57.698;11.958;2022-08-19T00:58:16;8.70;;;5.38;;
16531;SDS011;8378;57.698;11.958;2022-08-19T01:00:45;5.78;;;5.00;;
16531;SDS011;8378;57.698;11.958;2022-08-19T01:03:14;6.93;;;5.40;;
16531;SDS011;8378;57.698;11.958;2022-08-19T01:05:43;7.50;;;5.22;;
16531;SDS011;8378;57.698;11.958;2022-08-19T01:08:10;6.90;;;4.60;;
16531;SDS011;8378;57.698;11.958;2022-08-19T01:10:39;5.93;;;4.85;;
16531;SDS011;8378;57.698;11.958;2022-08-19T01:13:09;6.38;;;5.28;;
16531;SDS011;8378;57.698;11.958;2022-08-19T01:15:41;6.72;;;4.65;;
16531;SDS011;8378;57.698;11.958;2022-08-19T01:18:10;6.10;;;5.20;;
16531;SDS011;8378;57.698;11.958;2022-08-19T01:20:37;7.35;;;5.40;;
16531;SDS011;8378;57.698;11.958;2022-08-19T01:23:04;6.07;;;5.30;;
16531;SDS011;8378;57.698;11.958;2022-08-19T01:25:32;7.93;;;5.85;;
16531;SDS011;8378;57.698;11.958;2022-08-19T01:28:05;7.00;;;5.10;;
16531;SDS011;8378;57.698;11.958;2022-08-19T01:30:32;7.55;;;5.55;;
16531;SDS011;8378;57.698;11.958;2022-08-19T01:32:59;7.78;;;5.75;;
16531;SDS011;8378;57.698;11.958;2022-08-19T01:35:27;7.03;;;5.43;;
16531;SDS011;8378;57.698;11.958;2022-08-19T01:38:05;6.35;;;4.93;;
16531;SDS011;8378;57.698;11.958;2022-08-19T01:40:34;6.45;;;5.30;;
16531;SDS011;8378;57.698;11.958;2022-08-19T01:43:03;7.03;;;4.90;;
16531;SDS011;8378;57.698;11.958;2022-08-19T01:45:31;8.70;;;5.50;;
16531;SDS011;8378;57.698;11.958;2022-08-19T01:47:59;7.63;;;5.50;;
16531;SDS011;8378;57.698;11.958;2022-08-19T01:50:25;8.05;;;5.47;;
16531;SDS011;8378;57.698;11.958;2022-08-19T01:52:51;9.20;;;6.05;;
16531;SDS011;8378;57.698;11.958;2022-08-19T01:55:20;9.10;;;5.68;;
16531;SDS011;8378;57.698;11.958;2022-08-19T01:57:50;8.38;;;5.38;;
16531;SDS011;8378;57.698;11.958;2022-08-19T02:00:20;7.80;;;6.22;;
16531;SDS011;8378;57.698;11.958;2022-08-19T02:02:47;7.57;;;5.30;;
16531;SDS011;8378;57.698;11.958;2022-08-19T02:05:12;7.45;;;5.75;;
16531;SDS011;8378;57.698;11.958;2022-08-19T02:07:39;7.40;;;6.00;;
16531;SDS011;8378;57.698;11.958;2022-08-19T02:10:07;9.10;;;6.40;;
16531;SDS011;8378;57.698;11.958;2022-08-19T02:12:36;5.57;;;5.05;;
16531;SDS011;8378;57.698;11.958;2022-08-19T02:15:02;7.13;;;5.65;;
16531;SDS011;8378;57.698;11.958;2022-08-19T02:17:28;8.88;;;6.10;;
16531;SDS011;8378;57.698;11.958;2022-08-19T02:19:55;11.25;;;6.07;;
16531;SDS011;8378;57.698;11.958;2022-08-19T02:22:21;8.10;;;5.82;;
16531;SDS011;8378;57.698;11.958;2022-08-19T02:24:47;9.38;;;5.82;;
16531;SDS011;8378;57.698;11.958;2022-08-19T02:27:13;10.98;;;5.80;;
16531;SDS011;8378;57.698;11.958;2022-08-19T02:29:40;8.07;;;5.72;;
16531;SDS011;8378;57.698;11.958;2022-08-19T02:32:05;9.35;;;5.68;;
16531;SDS011;8378;57.698;11.958;2022-08-19T02:34:31;10.13;;;5.80;;
16531;SDS011;8378;57.698;11.958;2022-08-19T02:36:57;6.90;;;5.72;;
16531;SDS011;8378;57.698;11.958;2022-08-19T02:39:23;8.82;;;5.78;;
16531;SDS011;8378;57.698;11.958;2022-08-19T02:41:48;8.30;;;5.40;;
16531;SDS011;8378;57.698;11.958;2022-08-19T02:44:15;7.85;;;5.50;;
16531;SDS011;8378;57.698;11.958;2022-08-19T02:46:41;10.40;;;6.30;;
16531;SDS011;8378;57.698;11.958;2022-08-19T02:49:09;9.07;;;5.40;;
16531;SDS011;8378;57.698;11.958;2022-08-19T02:51:36;7.57;;;5.68;;
16531;SDS011;8378;57.698;11.958;2022-08-19T02:54:04;11.38;;;6.32;;
16531;SDS011;8378;57.698;11.958;2022-08-19T02:56:33;9.68;;;6.10;;
16531;SDS011;8378;57.698;11.958;2022-08-19T02:59:00;9.05;;;5.57;;
16531;SDS011;8378;57.698;11.958;2022-08-19T03:01:27;10.65;;;5.43;;
16531;SDS011;8378;57.698;11.958;2022-08-19T03:03:58;8.05;;;5.47;;
16531;SDS011;8378;57.698;11.958;2022-08-19T03:06:26;7.22;;;4.78;;
16531;SDS011;8378;57.698;11.958;2022-08-19T03:08:53;11.50;;;6.05;;
16531;SDS011;8378;57.698;11.958;2022-08-19T03:11:26;9.57;;;5.10;;
16531;SDS011;8378;57.698;11.958;2022-08-19T03:13:56;8.77;;;5.45;;
16531;SDS011;8378;57.698;11.958;2022-08-19T03:16:23;7.00;;;5.00;;
16531;SDS011;8378;57.698;11.958;2022-08-19T03:18:50;8.30;;;4.80;;
16531;SDS011;8378;57.698;11.958;2022-08-19T03:21:18;10.05;;;5.57;;
16531;SDS011;8378;57.698;11.958;2022-08-19T03:23:48;6.10;;;4.38;;
16531;SDS011;8378;57.698;11.958;2022-08-19T03:26:14;9.32;;;5.00;;
16531;SDS011;8378;57.698;11.958;2022-08-19T03:28:41;8.38;;;4.82;;
16531;SDS011;8378;57.698;11.958;2022-08-19T03:31:10;7.90;;;4.85;;
16531;SDS011;8378;57.698;11.958;2022-08-19T03:33:39;8.57;;;4.85;;
16531;SDS011;8378;57.698;11.958;2022-08-19T03:36:12;7.75;;;4.90;;
16531;SDS011;8378;57.698;11.958;2022-08-19T03:38:41;6.22;;;5.30;;
16531;SDS011;8378;57.698;11.958;2022-08-19T03:41:14;7.15;;;5.05;;
16531;SDS011;8378;57.698;11.958;2022-08-19T03:43:42;7.13;;;4.53;;
16531;SDS011;8378;57.698;11.958;2022-08-19T03:46:11;6.90;;;5.07;;
16531;SDS011;8378;57.698;11.958;2022-08-19T03:48:38;8.23;;;5.35;;
16531;SDS011;8378;57.698;11.958;2022-08-19T03:51:06;8.13;;;5.00;;
16531;SDS011;8378;57.698;11.958;2022-08-19T03:53:33;7.10;;;4.72;;
16531;SDS011;8378;57.698;11.958;2022-08-19T03:55:59;7.38;;;4.95;;
16531;SDS011;8378;57.698;11.958;2022-08-19T03:58:26;7.60;;;5.50;;
16531;SDS011;8378;57.698;11.958;2022-08-19T04:00:54;9.07;;;5.53;;
16531;SDS011;8378;57.698;11.958;2022-08-19T04:03:21;9.20;;;4.78;;
16531;SDS011;8378;57.698;11.958;2022-08-19T04:05:47;8.05;;;5.13;;
16531;SDS011;8378;57.698;11.958;2022-08-19T04:08:13;7.82;;;5.30;;
16531;SDS011;8378;57.698;11.958;2022-08-19T04:10:40;8.48;;;5.43;;
16531;SDS011;8378;57.698;11.958;2022-08-19T04:13:06;7.28;;;4.95;;
16531;SDS011;8378;57.698;11.958;2022-08-19T04:15:33;7.68;;;5.57;;
16531;SDS011;8378;57.698;11.958;2022-08-19T04:18:06;10.32;;;5.55;;
16531;SDS011;8378;57.698;11.958;2022-08-19T04:20:43;7.05;;;5.30;;
16531;SDS011;8378;57.698;11.958;2022-08-19T04:23:11;7.93;;;5.50;;
16531;SDS011;8378;57.698;11.958;2022-08-19T04:25:38;9.32;;;5.78;;
16531;SDS011;8378;57.698;11.958;2022-08-19T04:28:07;9.68;;;6.03;;
16531;SDS011;8378;57.698;11.958;2022-08-19T04:30:53;9.07;;;6.35;;
16531;SDS011;8378;57.698;11.958;2022-08-19T04:33:21;7.82;;;6.50;;
16531;SDS011;8378;57.698;11.958;2022-08-19T04:35:48;9.88;;;5.70;;
16531;SDS011;8378;57.698;11.958;2022-08-19T04:38:16;10.32;;;6.68;;
16531;SDS011;8378;57.698;11.958;2022-08-19T04:40:44;7.53;;;6.30;;
16531;SDS011;8378;57.698;11.958;2022-08-19T04:43:33;7.53;;;5.90;;
16531;SDS011;8378;57.698;11.958;2022-08-19T04:46:07;7.70;;;5.72;;
16531;SDS011;8378;57.698;11.958;2022-08-19T04:48:35;10.30;;;6.55;;
16531;SDS011;8378;57.698;11.958;2022-08-19T04:51:00;8.82;;;6.55;;
16531;SDS011;8378;57.698;11.958;2022-08-19T04:53:32;9.30;;;6.70;;
16531;SDS011;8378;57.698;11.958;2022-08-19T04:55:59;9.43;;;6.75;;
16531;SDS011;8378;57.698;11.958;2022-08-19T04:58:31;10.25;;;6.82;;
16531;SDS011;8378;57.698;11.958;2022-08-19T05:00:57;10.50;;;7.57;;
16531;SDS011;8378;57.698;11.958;2022-08-19T05:03:25;11.00;;;8.20;;
16531;SDS011;8378;57.698;11.958;2022-08-19T05:05:51;12.07;;;8.55;;
16531;SDS011;8378;57.698;11.958;2022-08-19T05:08:18;11.88;;;7.32;;
16531;SDS011;8378;57.698;11.958;2022-08-19T05:10:49;9.13;;;7.50;;
16531;SDS011;8378;57.698;11.958;2022-08-19T05:13:17;9.00;;;7.20;;
16531;SDS011;8378;57.698;11.958;2022-08-19T05:15:43;8.80;;;7.30;;
16531;SDS011;8378;57.698;11.958;2022-08-19T05:18:17;9.50;;;7.65;;
16531;SDS011;8378;57.698;11.958;2022-08-19T05:21:05;12.07;;;7.88;;
16531;SDS011;8378;57.698;11.958;2022-08-19T05:23:53;8.55;;;5.93;;
16531;SDS011;8378;57.698;11.958;2022-08-19T05:26:19;6.55;;;5.28;;
16531;SDS011;8378;57.698;11.958;2022-08-19T05:28:44;9.73;;;7.10;;
16531;SDS011;8378;57.698;11.958;2022-08-19T05:31:10;9.73;;;6.43;;
16531;SDS011;8378;57.698;11.958;2022-08-19T05:33:36;10.15;;;6.18;;
16531;SDS011;8378;57.698;11.958;2022-08-19T05:36:02;9.63;;;7.05;;
16531;SDS011;8378;57.698;11.958;2022-08-19T05:38:28;11.20;;;6.60;;
16531;SDS011;8378;57.698;11.958;2022-08-19T05:40:55;9.10;;;6.57;;
16531;SDS011;8378;57.698;11.958;2022-08-19T05:43:20;8.77;;;6.82;;
16531;SDS011;8378;57.698;11.958;2022-08-19T05:45:46;8.00;;;5.80;;
16531;SDS011;8378;57.698;11.958;2022-08-19T05:48:12;6.32;;;5.70;;
16531;SDS011;8378;57.698;11.958;2022-08-19T05:50:39;6.88;;;6.13;;
16531;SDS011;8378;57.698;11.958;2022-08-19T05:53:06;7.75;;;6.05;;
16531;SDS011;8378;57.698;11.958;2022-08-19T05:55:33;8.80;;;5.90;;
16531;SDS011;8378;57.698;11.958;2022-08-19T05:58:00;6.72;;;6.13;;
16531;SDS011;8378;57.698;11.958;2022-08-19T06:00:26;6.65;;;5.70;;
16531;SDS011;8378;57.698;11.958;2022-08-19T06:02:52;6.95;;;5.35;;
16531;SDS011;8378;57.698;11.958;2022-08-19T06:05:19;5.82;;;5.25;;
16531;SDS011;8378;57.698;11.958;2022-08-19T06:07:45;8.73;;;5.80;;
16531;SDS011;8378;57.698;11.958;2022-08-19T06:10:10;7.30;;;6.30;;
16531;SDS011;8378;57.698;11.958;2022-08-19T06:12:37;6.60;;;5.90;;
16531;SDS011;8378;57.698;11.958;2022-08-19T06:15:10;6.13;;;5.53;;
16531;SDS011;8378;57.698;11.958;2022-08-19T06:17:38;6.32;;;5.72;;
16531;SDS011;8378;57.698;11.958;2022-08-19T06:20:08;6.15;;;5.53;;
16531;SDS011;8378;57.698;11.958;2022-08-19T06:22:44;6.10;;;4.90;;
16531;SDS011;8378;57.698;11.958;2022-08-19T06:25:12;6.03;;;5.40;;
16531;SDS011;8378;57.698;11.958;2022-08-19T06:27:39;6.05;;;5.07;;
16531;SDS011;8378;57.698;11.958;2022-08-19T06:30:05;6.30;;;5.70;;
16531;SDS011;8378;57.698;11.958;2022-08-19T06:32:31;5.70;;;5.20;;
16531;SDS011;8378;57.698;11.958;2022-08-19T06:34:57;5.63;;;4.80;;
16531;SDS011;8378;57.698;11.958;2022-08-19T06:37:23;5.30;;;4.80;;
16531;SDS011;8378;57.698;11.958;2022-08-19T06:39:49;5.03;;;4.53;;
16531;SDS011;8378;57.698;11.958;2022-08-19T06:42:15;6.32;;;4.82;;
16531;SDS011;8378;57.698;11.958;2022-08-19T06:44:44;5.65;;;4.70;;
16531;SDS011;8378;57.698;11.958;2022-08-19T06:47:12;5.70;;;5.20;;
16531;SDS011;8378;57.698;11.958;2022-08-19T06:49:40;5.00;;;4.32;;
16531;SDS011;8378;57.698;11.958;2022-08-19T06:52:06;4.93;;;4.53;;
16531;SDS011;8378;57.698;11.958;2022-08-19T06:54:32;4.57;;;4.18;;
16531;SDS011;8378;57.698;11.958;2022-08-19T06:56:58;5.05;;;4.55;;
16531;SDS011;8378;57.698;11.958;2022-08-19T06:59:27;5.05;;;4.55;;
16531;SDS011;8378;57.698;11.958;2022-08-19T07:01:54;5.30;;;4.80;;
16531;SDS011;8378;57.698;11.958;2022-08-19T07:04:22;5.22;;;4.57;;
16531;SDS011;8378;57.698;11.958;2022-08-19T07:06:56;5.72;;;5.22;;
16531;SDS011;8378;57.698;11.958;2022-08-19T07:09:32;5.15;;;4.72;;
16531;SDS011;8378;57.698;11.958;2022-08-19T07:11:57;5.43;;;4.93;;
16531;SDS011;8378;57.698;11.958;2022-08-19T07:14:24;5.13;;;4.63;;
16531;SDS011;8378;57.698;11.958;2022-08-19T07:16:52;5.03;;;4.63;;
16531;SDS011;8378;57.698;11.958;2022-08-19T07:19:20;5.70;;;5.20;;
16531;SDS011;8378;57.698;11.958;2022-08-19T07:21:49;5.10;;;4.60;;
16531;SDS011;8378;57.698;11.958;2022-08-19T07:24:17;5.43;;;4.85;;
16531;SDS011;8378;57.698;11.958;2022-08-19T07:26:44;4.78;;;4.28;;
16531;SDS011;8378;57.698;11.958;2022-08-19T07:29:10;4.60;;;4.20;;
16531;SDS011;8378;57.698;11.958;2022-08-19T07:31:36;5.07;;;4.57;;
16531;SDS011;8378;57.698;11.958;2022-08-19T07:34:07;4.88;;;4.47;;
16531;SDS011;8378;57.698;11.958;2022-08-19T07:36:35;5.53;;;5.03;;
16531;SDS011;8378;57.698;11.958;2022-08-19T07:39:05;5.43;;;4.80;;
16531;SDS011;8378;57.698;11.958;2022-08-19T07:41:33;5.18;;;4.70;;
16531;SDS011;8378;57.698;11.958;2022-08-19T07:44:00;4.93;;;4.53;;
16531;SDS011;8378;57.698;11.958;2022-08-19T07:46:30;4.80;;;4.28;;
16531;SDS011;8378;57.698;11.958;2022-08-19T07:49:00;5.38;;;4.72;;
16531;SDS011;8378;57.698;11.958;2022-08-19T07:51:26;5.50;;;5.00;;
16531;SDS011;8378;57.698;11.958;2022-08-19T07:53:52;4.75;;;4.30;;
16531;SDS011;8378;57.698;11.958;2022-08-19T07:56:18;4.80;;;4.40;;
16531;SDS011;8378;57.698;11.958;2022-08-19T07:58:45;5.22;;;4.72;;
16531;SDS011;8378;57.698;11.958;2022-08-19T08:01:14;5.13;;;4.65;;
16531;SDS011;8378;57.698;11.958;2022-08-19T08:03:42;4.75;;;4.30;;
16531;SDS011;8378;57.698;11.958;2022-08-19T08:06:27;5.20;;;4.70;;
16531;SDS011;8378;57.698;11.958;2022-08-19T08:09:12;6.03;;;4.40;;
16531;SDS011;8378;57.698;11.958;2022-08-19T08:12:05;6.57;;;4.90;;
16531;SDS011;8378;57.698;11.958;2022-08-19T08:14:44;5.95;;;4.82;;
16531;SDS011;8378;57.698;11.958;2022-08-19T08:17:12;5.18;;;4.78;;
16531;SDS011;8378;57.698;11.958;2022-08-19T08:19:40;5.05;;;4.65;;
16531;SDS011;8378;57.698;11.958;2022-08-19T08:22:06;5.40;;;4.90;;
16531;SDS011;8378;57.698;11.958;2022-08-19T08:24:34;5.35;;;4.85;;
16531;SDS011;8378;57.698;11.958;2022-08-19T08:27:00;5.60;;;5.03;;
16531;SDS011;8378;57.698;11.958;2022-08-19T08:29:28;6.32;;;4.70;;
16531;SDS011;8378;57.698;11.958;2022-08-19T08:31:56;6.07;;;5.00;;
16531;SDS011;8378;57.698;11.958;2022-08-19T08:34:22;4.95;;;4.45;;
16531;SDS011;8378;57.698;11.958;2022-08-19T08:36:48;4.63;;;4.22;;
16531;SDS011;8378;57.698;11.958;2022-08-19T08:39:17;5.15;;;4.43;;
16531;SDS011;8378;57.698;11.958;2022-08-19T08:44:17;4.93;;;4.53;;
16531;SDS011;8378;57.698;11.958;2022-08-19T08:46:55;4.53;;;4.13;;
16531;SDS011;8378;57.698;11.958;2022-08-19T08:54:55;4.68;;;4.10;;
16531;SDS011;8378;57.698;11.958;2022-08-19T08:57:50;4.35;;;3.95;;
16531;SDS011;8378;57.698;11.958;2022-08-19T09:00:22;4.65;;;4.25;;
16531;SDS011;8378;57.698;11.958;2022-08-19T09:02:49;5.55;;;4.20;;
16531;SDS011;8378;57.698;11.958;2022-08-19T09:05:15;6.05;;;4.85;;
16531;SDS011;8378;57.698;11.958;2022-08-19T09:10:39;4.93;;;4.53;;
16531;SDS011;8378;57.698;11.958;2022-08-19T09:15:36;5.10;;;4.60;;
16531;SDS011;8378;57.698;11.958;2022-08-19T09:18:09;4.97;;;4.53;;
16531;SDS011;8378;57.698;11.958;2022-08-19T09:20:35;5.10;;;4.60;;
16531;SDS011;8378;57.698;11.958;2022-08-19T09:23:01;5.53;;;4.75;;
16531;SDS011;8378;57.698;11.958;2022-08-19T09:25:27;4.80;;;4.40;;
16531;SDS011;8378;57.698;11.958;2022-08-19T09:27:54;8.02;;;6.40;;
16531;SDS011;8378;57.698;11.958;2022-08-19T09:30:24;6.32;;;5.82;;
16531;SDS011;8378;57.698;11.958;2022-08-19T09:32:52;8.00;;;7.20;;
16531;SDS011;8378;57.698;11.958;2022-08-19T09:35:22;6.93;;;6.25;;
16531;SDS011;8378;57.698;11.958;2022-08-19T09:37:51;7.32;;;6.60;;
16531;SDS011;8378;57.698;11.958;2022-08-19T09:40:17;8.30;;;6.35;;
16531;SDS011;8378;57.698;11.958;2022-08-19T09:42:44;7.65;;;6.25;;
16531;SDS011;8378;57.698;11.958;2022-08-19T09:45:12;6.60;;;6.00;;
16531;SDS011;8378;57.698;11.958;2022-08-19T09:47:38;7.65;;;6.82;;
16531;SDS011;8378;57.698;11.958;2022-08-19T09:50:05;9.02;;;6.00;;
16531;SDS011;8378;57.698;11.958;2022-08-19T09:52:32;7.53;;;5.60;;
16531;SDS011;8378;57.698;11.958;2022-08-19T09:55:02;7.38;;;5.97;;
16531;SDS011;8378;57.698;11.958;2022-08-19T09:57:29;6.63;;;5.65;;
16531;SDS011;8378;57.698;11.958;2022-08-19T09:59:55;7.57;;;5.40;;
16531;SDS011;8378;57.698;11.958;2022-08-19T10:02:21;6.20;;;5.55;;
16531;SDS011;8378;57.698;11.958;2022-08-19T10:04:46;6.07;;;5.35;;
16531;SDS011;8378;57.698;11.958;2022-08-19T10:07:30;6.20;;;5.60;;
16531;SDS011;8378;57.698;11.958;2022-08-19T10:09:56;5.75;;;5.18;;
16531;SDS011;8378;57.698;11.958;2022-08-19T10:12:22;6.55;;;5.25;;
16531;SDS011;8378;57.698;11.958;2022-08-19T10:14:48;6.07;;;5.47;;
16531;SDS011;8378;57.698;11.958;2022-08-19T10:17:15;5.97;;;5.10;;
16531;SDS011;8378;57.698;11.958;2022-08-19T10:19:42;5.68;;;5.05;;
16531;SDS011;8378;57.698;11.958;2022-08-19T10:22:08;7.15;;;5.20;;
16531;SDS011;8378;57.698;11.958;2022-08-19T10:24:36;5.70;;;5.20;;
16531;SDS011;8378;57.698;11.958;2022-08-19T10:27:01;5.65;;;5.05;;
16531;SDS011;8378;57.698;11.958;2022-08-19T10:29:29;5.70;;;5.20;;
16531;SDS011;8378;57.698;11.958;2022-08-19T10:31:56;5.72;;;5.20;;
16531;SDS011;8378;57.698;11.958;2022-08-19T10:34:23;6.90;;;5.05;;
16531;SDS011;8378;57.698;11.958;2022-08-19T10:36:49;5.68;;;4.97;;
16531;SDS011;8378;57.698;11.958;2022-08-19T10:39:16;5.80;;;4.72;;
16531;SDS011;8378;57.698;11.958;2022-08-19T10:41:41;6.00;;;5.13;;
16531;SDS011;8378;57.698;11.958;2022-08-19T10:44:09;5.32;;;4.70;;
16531;SDS011;8378;57.698;11.958;2022-08-19T10:46:37;5.97;;;5.38;;
16531;SDS011;8378;57.698;11.958;2022-08-19T10:49:06;6.20;;;5.60;;
16531;SDS011;8378;57.698;11.958;2022-08-19T10:51:34;5.57;;;5.07;;
16531;SDS011;8378;57.698;11.958;2022-08-19T10:54:18;8.82;;;5.03;;
16531;SDS011;8378;57.698;11.958;2022-08-19T10:56:44;6.28;;;4.90;;
16531;SDS011;8378;57.698;11.958;2022-08-19T10:59:17;5.25;;;4.72;;
16531;SDS011;8378;57.698;11.958;2022-08-19T11:01:45;6.93;;;4.93;;
16531;SDS011;8378;57.698;11.958;2022-08-19T11:04:11;4.97;;;4.47;;
16531;SDS011;8378;57.698;11.958;2022-08-19T11:06:38;5.40;;;4.90;;
16531;SDS011;8378;57.698;11.958;2022-08-19T11:09:06;5.15;;;4.65;;
16531;SDS011;8378;57.698;11.958;2022-08-19T11:11:32;5.15;;;4.60;;
16531;SDS011;8378;57.698;11.958;2022-08-19T11:14:04;4.90;;;4.40;;
16531;SDS011;8378;57.698;11.958;2022-08-19T11:16:30;5.22;;;4.32;;
16531;SDS011;8378;57.698;11.958;2022-08-19T11:18:57;5.93;;;4.38;;
16531;SDS011;8378;57.698;11.958;2022-08-19T11:21:25;6.85;;;4.55;;
16531;SDS011;8378;57.698;11.958;2022-08-19T11:23:59;6.95;;;5.10;;
16531;SDS011;8378;57.698;11.958;2022-08-19T11:26:27;6.32;;;4.35;;
16531;SDS011;8378;57.698;11.958;2022-08-19T11:28:55;6.72;;;4.32;;
16531;SDS011;8378;57.698;11.958;2022-08-19T11:31:23;4.88;;;4.38;;
16531;SDS011;8378;57.698;11.958;2022-08-19T11:33:59;6.05;;;5.03;;
16531;SDS011;8378;57.698;11.958;2022-08-19T11:36:26;6.45;;;4.95;;
16531;SDS011;8378;57.698;11.958;2022-08-19T11:38:53;5.40;;;4.80;;
16531;SDS011;8378;57.698;11.958;2022-08-19T11:41:20;7.43;;;4.93;;
16531;SDS011;8378;57.698;11.958;2022-08-19T11:43:48;5.78;;;4.40;;
16531;SDS011;8378;57.698;11.958;2022-08-19T11:46:15;5.60;;;4.78;;
16531;SDS011;8378;57.698;11.958;2022-08-19T11:48:41;6.22;;;5.00;;
16531;SDS011;8378;57.698;11.958;2022-08-19T11:51:09;5.97;;;4.65;;
16531;SDS011;8378;57.698;11.958;2022-08-19T11:53:37;5.80;;;4.82;;
16531;SDS011;8378;57.698;11.958;2022-08-19T11:56:04;5.70;;;4.60;;
16531;SDS011;8378;57.698;11.958;2022-08-19T11:58:30;5.57;;;5.07;;
16531;SDS011;8378;57.698;11.958;2022-08-19T12:00:56;5.85;;;4.38;;
16531;SDS011;8378;57.698;11.958;2022-08-19T12:03:22;5.05;;;4.47;;
16531;SDS011;8378;57.698;11.958;2022-08-19T12:05:48;5.10;;;4.57;;
16531;SDS011;8378;57.698;11.958;2022-08-19T12:08:15;5.18;;;4.65;;
16531;SDS011;8378;57.698;11.958;2022-08-19T12:10:41;5.25;;;4.30;;
16531;SDS011;8378;57.698;11.958;2022-08-19T12:13:10;5.55;;;4.30;;
16531;SDS011;8378;57.698;11.958;2022-08-19T12:15:39;4.45;;;4.05;;
16531;SDS011;8378;57.698;11.958;2022-08-19T12:18:06;5.15;;;3.92;;
16531;SDS011;8378;57.698;11.958;2022-08-19T12:20:36;5.13;;;4.63;;
16531;SDS011;8378;57.698;11.958;2022-08-19T12:23:03;5.38;;;4.50;;
16531;SDS011;8378;57.698;11.958;2022-08-19T12:25:30;4.97;;;4.50;;
16531;SDS011;8378;57.698;11.958;2022-08-19T12:27:56;5.68;;;4.95;;
16531;SDS011;8378;57.698;11.958;2022-08-19T12:30:23;6.75;;;5.10;;
16531;SDS011;8378;57.698;11.958;2022-08-19T12:32:49;5.72;;;4.95;;
16531;SDS011;8378;57.698;11.958;2022-08-19T12:35:16;5.43;;;4.93;;
16531;SDS011;8378;57.698;11.958;2022-08-19T12:37:44;5.60;;;4.70;;
16531;SDS011;8378;57.698;11.958;2022-08-19T12:40:11;8.30;;;4.80;;
16531;SDS011;8378;57.698;11.958;2022-08-19T12:42:38;5.65;;;4.53;;
16531;SDS011;8378;57.698;11.958;2022-08-19T12:45:10;4.78;;;3.55;;
16531;SDS011;8378;57.698;11.958;2022-08-19T12:47:38;6.47;;;4.03;;
16531;SDS011;8378;57.698;11.958;2022-08-19T12:50:04;5.82;;;4.00;;
16531;SDS011;8378;57.698;11.958;2022-08-19T12:52:34;6.90;;;4.50;;
16531;SDS011;8378;57.698;11.958;2022-08-19T12:55:07;5.32;;;3.75;;
16531;SDS011;8378;57.698;11.958;2022-08-19T12:57:33;6.50;;;3.92;;
16531;SDS011;8378;57.698;11.958;2022-08-19T13:00:02;3.85;;;3.40;;
16531;SDS011;8378;57.698;11.958;2022-08-19T13:02:42;4.07;;;3.05;;
16531;SDS011;8378;57.698;11.958;2022-08-19T13:05:10;4.70;;;3.00;;
16531;SDS011;8378;57.698;11.958;2022-08-19T13:07:38;3.70;;;3.03;;
16531;SDS011;8378;57.698;11.958;2022-08-19T13:10:06;7.10;;;3.13;;
16531;SDS011;8378;57.698;11.958;2022-08-19T13:12:33;5.13;;;3.20;;
16531;SDS011;8378;57.698;11.958;2022-08-19T13:14:59;3.30;;;3.00;;
16531;SDS011;8378;57.698;11.958;2022-08-19T13:17:25;3.22;;;2.92;;
16531;SDS011;8378;57.698;11.958;2022-08-19T13:19:51;3.45;;;2.85;;
16531;SDS011;8378;57.698;11.958;2022-08-19T13:22:17;3.55;;;2.90;;
16531;SDS011;8378;57.698;11.958;2022-08-19T13:24:43;4.22;;;3.10;;
16531;SDS011;8378;57.698;11.958;2022-08-19T13:27:08;6.40;;;2.92;;
16531;SDS011;8378;57.698;11.958;2022-08-19T13:29:34;3.17;;;2.70;;
16531;SDS011;8378;57.698;11.958;2022-08-19T13:32:18;3.85;;;3.03;;
16531;SDS011;8378;57.698;11.958;2022-08-19T13:35:03;3.40;;;2.58;;
16531;SDS011;8378;57.698;11.958;2022-08-19T13:37:29;3.53;;;2.50;;
16531;SDS011;8378;57.698;11.958;2022-08-19T13:40:11;3.05;;;2.60;;
16531;SDS011;8378;57.698;11.958;2022-08-19T13:42:48;4.13;;;2.63;;
16531;SDS011;8378;57.698;11.958;2022-08-19T13:45:16;4.68;;;2.75;;
16531;SDS011;8378;57.698;11.958;2022-08-19T13:47:44;3.42;;;2.58;;
16531;SDS011;8378;57.698;11.958;2022-08-19T13:50:12;3.20;;;2.80;;
16531;SDS011;8378;57.698;11.958;2022-08-19T13:52:40;3.90;;;2.70;;
16531;SDS011;8378;57.698;11.958;2022-08-19T13:55:06;4.70;;;2.80;;
16531;SDS011;8378;57.698;11.958;2022-08-19T13:57:34;3.75;;;2.70;;
16531;SDS011;8378;57.698;11.958;2022-08-19T14:00:01;3.53;;;2.40;;
16531;SDS011;8378;57.698;11.958;2022-08-19T14:02:28;4.40;;;2.50;;
16531;SDS011;8378;57.698;11.958;2022-08-19T14:04:54;3.72;;;2.55;;
16531;SDS011;8378;57.698;11.958;2022-08-19T14:07:19;3.60;;;2.53;;
16531;SDS011;8378;57.698;11.958;2022-08-19T14:09:48;3.05;;;2.55;;
16531;SDS011;8378;57.698;11.958;2022-08-19T14:12:17;4.15;;;2.63;;
16531;SDS011;8378;57.698;11.958;2022-08-19T14:14:44;3.55;;;2.25;;
16531;SDS011;8378;57.698;11.958;2022-08-19T14:17:10;2.70;;;2.20;;
16531;SDS011;8378;57.698;11.958;2022-08-19T14:19:35;3.58;;;2.40;;
16531;SDS011;8378;57.698;11.958;2022-08-19T14:22:01;3.47;;;2.55;;
16531;SDS011;8378;57.698;11.958;2022-08-19T14:24:30;2.65;;;2.33;;
16531;SDS011;8378;57.698;11.958;2022-08-19T14:26:57;4.82;;;2.30;;
16531;SDS011;8378;57.698;11.958;2022-08-19T14:29:23;5.20;;;2.42;;
16531;SDS011;8378;57.698;11.958;2022-08-19T14:31:49;2.63;;;2.15;;
16531;SDS011;8378;57.698;11.958;2022-08-19T14:34:14;2.40;;;2.13;;
16531;SDS011;8378;57.698;11.958;2022-08-19T14:36:40;2.75;;;2.30;;
16531;SDS011;8378;57.698;11.958;2022-08-19T14:39:06;2.75;;;2.05;;
16531;SDS011;8378;57.698;11.958;2022-08-19T14:41:32;3.40;;;1.92;;
16531;SDS011;8378;57.698;11.958;2022-08-19T14:43:58;3.13;;;2.20;;
16531;SDS011;8378;57.698;11.958;2022-08-19T14:46:25;2.30;;;2.10;;
16531;SDS011;8378;57.698;11.958;2022-08-19T14:48:52;4.47;;;2.50;;
16531;SDS011;8378;57.698;11.958;2022-08-19T14:51:19;4.43;;;2.08;;
16531;SDS011;8378;57.698;11.958;2022-08-19T14:53:46;3.00;;;2.00;;
16531;SDS011;8378;57.698;11.958;2022-08-19T14:56:16;3.28;;;2.00;;
16531;SDS011;8378;57.698;11.958;2022-08-19T14:58:44;3.90;;;2.10;;
16531;SDS011;8378;57.698;11.958;2022-08-19T15:01:10;2.20;;;2.00;;
16531;SDS011;8378;57.698;11.958;2022-08-19T15:03:37;4.07;;;2.53;;
16531;SDS011;8378;57.698;11.958;2022-08-19T15:06:05;2.30;;;1.88;;
16531;SDS011;8378;57.698;11.958;2022-08-19T15:08:33;3.13;;;2.10;;